sensor_id;sensor_type;location;lat;lon;timestamp;temperature;humidity
51615;DHT22;37695;52.960;6.188;2022-08-04T00:10:36;19.80;99.90
51615;DHT22;37695;52.960;6.188;2022-08-04T00:13:03;19.90;99.90
51615;DHT22;37695;52.960;6.188;2022-08-04T00:15:31;19.90;99.90
51615;DHT22;37695;52.960;6.188;2022-08-04T00:18:00;19.90;99.90
51615;DHT22;37695;52.960;6.188;2022-08-04T00:20:32;19.90;99.90
51615;DHT22;37695;52.960;6.188;2022-08-04T00:23:00;19.90;99.90
51615;DHT22;37695;52.960;6.188;2022-08-04T00:25:26;19.90;99.90
51615;DHT22;37695;52.960;6.188;2022-08-04T00:27:53;19.90;99.90
51615;DHT22;37695;52.960;6.188;2022-08-04T00:30:19;19.90;99.90
51615;DHT22;37695;52.960;6.188;2022-08-04T00:32:45;19.90;99.90
51615;DHT22;37695;52.960;6.188;2022-08-04T00:35:13;19.90;99.90
51615;DHT22;37695;52.960;6.188;2022-08-04T00:37:39;19.90;99.90
51615;DHT22;37695;52.960;6.188;2022-08-04T00:43:11;19.90;99.90
51615;DHT22;37695;52.960;6.188;2022-08-04T00:46:01;19.90;99.90
51615;DHT22;37695;52.960;6.188;2022-08-04T00:53:51;19.80;99.90
51615;DHT22;37695;52.960;6.188;2022-08-04T00:59:28;19.80;99.90
51615;DHT22;37695;52.960;6.188;2022-08-04T01:02:03;19.70;99.90
51615;DHT22;37695;52.960;6.188;2022-08-04T01:04:49;19.70;99.90
51615;DHT22;37695;52.960;6.188;2022-08-04T01:12:35;19.60;99.90
51615;DHT22;37695;52.960;6.188;2022-08-04T01:15:28;19.60;99.90
51615;DHT22;37695;52.960;6.188;2022-08-04T01:18:04;19.60;99.90
51615;DHT22;37695;52.960;6.188;2022-08-04T01:29:03;19.50;99.90
51615;DHT22;37695;52.960;6.188;2022-08-04T01:34:18;19.50;99.90
51615;DHT22;37695;52.960;6.188;2022-08-04T01:36:46;19.60;99.90
51615;DHT22;37695;52.960;6.188;2022-08-04T01:39:16;19.60;99.90
51615;DHT22;37695;52.960;6.188;2022-08-04T01:42:01;19.50;99.90
51615;DHT22;37695;52.960;6.188;2022-08-04T01:44:30;19.50;99.90
51615;DHT22;37695;52.960;6.188;2022-08-04T01:46:56;19.50;99.90
51615;DHT22;37695;52.960;6.188;2022-08-04T01:49:30;19.50;99.90
51615;DHT22;37695;52.960;6.188;2022-08-04T01:51:56;19.50;99.90
51615;DHT22;37695;52.960;6.188;2022-08-04T01:54:25;19.50;99.90
51615;DHT22;37695;52.960;6.188;2022-08-04T01:56:52;19.50;99.90
51615;DHT22;37695;52.960;6.188;2022-08-04T01:59:19;19.50;99.90
51615;DHT22;37695;52.960;6.188;2022-08-04T02:01:46;19.50;99.90
51615;DHT22;37695;52.960;6.188;2022-08-04T02:04:16;19.50;99.90
51615;DHT22;37695;52.960;6.188;2022-08-04T02:09:42;19.40;99.90
51615;DHT22;37695;52.960;6.188;2022-08-04T02:20:28;19.20;99.90
51615;DHT22;37695;52.960;6.188;2022-08-04T02:23:03;19.20;99.90
51615;DHT22;37695;52.960;6.188;2022-08-04T02:25:55;19.10;99.90
51615;DHT22;37695;52.960;6.188;2022-08-04T02:28:27;19.00;99.90
51615;DHT22;37695;52.960;6.188;2022-08-04T02:33:37;19.00;99.90
51615;DHT22;37695;52.960;6.188;2022-08-04T02:36:04;18.90;99.90
51615;DHT22;37695;52.960;6.188;2022-08-04T02:38:57;18.80;99.90
51615;DHT22;37695;52.960;6.188;2022-08-04T02:41:26;18.80;99.90
51615;DHT22;37695;52.960;6.188;2022-08-04T02:43:58;18.80;99.90
51615;DHT22;37695;52.960;6.188;2022-08-04T02:46:24;18.80;99.90
51615;DHT22;37695;52.960;6.188;2022-08-04T02:48:51;18.80;99.90
51615;DHT22;37695;52.960;6.188;2022-08-04T02:51:25;18.80;99.90
51615;DHT22;37695;52.960;6.188;2022-08-04T02:53:53;18.80;99.90
51615;DHT22;37695;52.960;6.188;2022-08-04T02:56:21;18.70;99.90
51615;DHT22;37695;52.960;6.188;2022-08-04T02:59:07;18.60;99.90
51615;DHT22;37695;52.960;6.188;2022-08-04T03:01:33;18.60;99.90
51615;DHT22;37695;52.960;6.188;2022-08-04T03:04:42;18.50;99.90
51615;DHT22;37695;52.960;6.188;2022-08-04T03:07:28;18.50;99.90
51615;DHT22;37695;52.960;6.188;2022-08-04T03:23:47;18.50;99.90
51615;DHT22;37695;52.960;6.188;2022-08-04T03:43:13;18.30;99.90
51615;DHT22;37695;52.960;6.188;2022-08-04T03:58:05;18.20;99.90
51615;DHT22;37695;52.960;6.188;2022-08-04T04:09:22;18.30;99.90
51615;DHT22;37695;52.960;6.188;2022-08-04T04:15:15;18.30;99.90
51615;DHT22;37695;52.960;6.188;2022-08-04T04:21:12;18.30;99.90
51615;DHT22;37695;52.960;6.188;2022-08-04T04:26:39;18.20;99.90
51615;DHT22;37695;52.960;6.188;2022-08-04T04:29:27;18.20;99.90
51615;DHT22;37695;52.960;6.188;2022-08-04T04:32:02;18.30;99.90
51615;DHT22;37695;52.960;6.188;2022-08-04T04:34:39;18.30;99.90
51615;DHT22;37695;52.960;6.188;2022-08-04T04:37:42;18.30;99.90
51615;DHT22;37695;52.960;6.188;2022-08-04T04:40:26;18.40;99.90
51615;DHT22;37695;52.960;6.188;2022-08-04T04:46:09;18.40;99.90
51615;DHT22;37695;52.960;6.188;2022-08-04T04:48:57;18.40;99.90
51615;DHT22;37695;52.960;6.188;2022-08-04T04:51:32;18.50;99.90
51615;DHT22;37695;52.960;6.188;2022-08-04T04:57:10;18.60;99.90
51615;DHT22;37695;52.960;6.188;2022-08-04T04:59:45;18.60;99.90
51615;DHT22;37695;52.960;6.188;2022-08-04T05:13:52;19.00;99.90
51615;DHT22;37695;52.960;6.188;2022-08-04T05:16:45;19.00;99.90
51615;DHT22;37695;52.960;6.188;2022-08-04T05:19:24;19.10;99.90
51615;DHT22;37695;52.960;6.188;2022-08-04T05:22:05;19.10;99.90
51615;DHT22;37695;52.960;6.188;2022-08-04T05:24:40;19.20;99.90
51615;DHT22;37695;52.960;6.188;2022-08-04T05:27:18;19.20;99.90
51615;DHT22;37695;52.960;6.188;2022-08-04T05:30:04;19.30;99.90
51615;DHT22;37695;52.960;6.188;2022-08-04T05:32:37;19.40;99.90
51615;DHT22;37695;52.960;6.188;2022-08-04T05:35:13;19.50;99.90
51615;DHT22;37695;52.960;6.188;2022-08-04T05:37:40;19.50;99.90
51615;DHT22;37695;52.960;6.188;2022-08-04T05:40:09;19.60;99.90
51615;DHT22;37695;52.960;6.188;2022-08-04T05:42:37;19.60;99.90
51615;DHT22;37695;52.960;6.188;2022-08-04T05:45:05;19.80;99.90
51615;DHT22;37695;52.960;6.188;2022-08-04T05:47:32;19.90;99.90
51615;DHT22;37695;52.960;6.188;2022-08-04T05:50:03;20.00;99.90
51615;DHT22;37695;52.960;6.188;2022-08-04T05:52:31;20.10;99.90
51615;DHT22;37695;52.960;6.188;2022-08-04T05:54:59;20.20;99.90
51615;DHT22;37695;52.960;6.188;2022-08-04T05:57:26;20.30;99.90
51615;DHT22;37695;52.960;6.188;2022-08-04T05:59:54;20.50;99.90
51615;DHT22;37695;52.960;6.188;2022-08-04T06:02:23;20.60;99.90
51615;DHT22;37695;52.960;6.188;2022-08-04T06:04:50;20.80;99.90
51615;DHT22;37695;52.960;6.188;2022-08-04T06:07:16;20.90;99.90
51615;DHT22;37695;52.960;6.188;2022-08-04T06:09:43;21.00;99.90
51615;DHT22;37695;52.960;6.188;2022-08-04T06:12:19;21.20;99.90
51615;DHT22;37695;52.960;6.188;2022-08-04T06:14:48;21.30;99.90
51615;DHT22;37695;52.960;6.188;2022-08-04T06:17:22;21.50;99.90
51615;DHT22;37695;52.960;6.188;2022-08-04T06:19:49;21.60;99.90
51615;DHT22;37695;52.960;6.188;2022-08-04T06:22:16;21.80;99.90
51615;DHT22;37695;52.960;6.188;2022-08-04T06:24:44;21.90;99.90
51615;DHT22;37695;52.960;6.188;2022-08-04T06:27:13;22.00;99.90
51615;DHT22;37695;52.960;6.188;2022-08-04T06:29:40;22.20;99.90
51615;DHT22;37695;52.960;6.188;2022-08-04T06:32:07;22.40;99.90
51615;DHT22;37695;52.960;6.188;2022-08-04T06:34:56;22.50;99.90
51615;DHT22;37695;52.960;6.188;2022-08-04T06:37:24;22.70;99.90
51615;DHT22;37695;52.960;6.188;2022-08-04T06:39:50;22.80;99.90
51615;DHT22;37695;52.960;6.188;2022-08-04T06:42:17;22.80;99.90
51615;DHT22;37695;52.960;6.188;2022-08-04T06:44:44;23.00;99.90
51615;DHT22;37695;52.960;6.188;2022-08-04T06:47:11;23.10;99.90
51615;DHT22;37695;52.960;6.188;2022-08-04T06:49:38;23.20;99.90
51615;DHT22;37695;52.960;6.188;2022-08-04T06:52:05;23.30;99.90
51615;DHT22;37695;52.960;6.188;2022-08-04T06:54:31;23.50;99.90
51615;DHT22;37695;52.960;6.188;2022-08-04T06:56:58;23.50;99.90
51615;DHT22;37695;52.960;6.188;2022-08-04T06:59:25;23.50;99.90
51615;DHT22;37695;52.960;6.188;2022-08-04T07:01:52;23.60;99.90
51615;DHT22;37695;52.960;6.188;2022-08-04T07:04:18;23.80;99.90
51615;DHT22;37695;52.960;6.188;2022-08-04T07:06:44;24.10;99.90
51615;DHT22;37695;52.960;6.188;2022-08-04T07:09:10;24.00;99.90
51615;DHT22;37695;52.960;6.188;2022-08-04T07:11:36;24.20;99.90
51615;DHT22;37695;52.960;6.188;2022-08-04T07:14:03;24.20;99.90
51615;DHT22;37695;52.960;6.188;2022-08-04T07:16:30;24.20;99.90
51615;DHT22;37695;52.960;6.188;2022-08-04T07:18:56;24.30;99.90
51615;DHT22;37695;52.960;6.188;2022-08-04T07:21:22;24.30;99.90
51615;DHT22;37695;52.960;6.188;2022-08-04T07:23:49;24.30;99.90
51615;DHT22;37695;52.960;6.188;2022-08-04T07:26:15;24.40;99.90
51615;DHT22;37695;52.960;6.188;2022-08-04T07:28:43;24.40;99.90
51615;DHT22;37695;52.960;6.188;2022-08-04T07:31:12;24.50;99.90
51615;DHT22;37695;52.960;6.188;2022-08-04T07:33:40;24.50;99.90
51615;DHT22;37695;52.960;6.188;2022-08-04T07:36:06;24.40;99.90
51615;DHT22;37695;52.960;6.188;2022-08-04T07:38:32;24.40;99.90
51615;DHT22;37695;52.960;6.188;2022-08-04T07:40:58;24.40;99.90
51615;DHT22;37695;52.960;6.188;2022-08-04T07:43:25;24.50;99.90
51615;DHT22;37695;52.960;6.188;2022-08-04T07:45:52;24.60;99.90
51615;DHT22;37695;52.960;6.188;2022-08-04T07:48:17;24.60;99.90
51615;DHT22;37695;52.960;6.188;2022-08-04T07:50:45;24.60;99.90
51615;DHT22;37695;52.960;6.188;2022-08-04T07:53:11;24.60;99.90
51615;DHT22;37695;52.960;6.188;2022-08-04T07:55:37;24.60;99.90
51615;DHT22;37695;52.960;6.188;2022-08-04T07:58:03;24.70;99.90
51615;DHT22;37695;52.960;6.188;2022-08-04T08:00:29;24.70;99.90
51615;DHT22;37695;52.960;6.188;2022-08-04T08:02:55;24.80;99.90
51615;DHT22;37695;52.960;6.188;2022-08-04T08:05:21;24.80;99.90
51615;DHT22;37695;52.960;6.188;2022-08-04T08:07:48;24.80;99.90
51615;DHT22;37695;52.960;6.188;2022-08-04T08:10:14;24.80;99.90
51615;DHT22;37695;52.960;6.188;2022-08-04T08:12:41;24.70;99.90
51615;DHT22;37695;52.960;6.188;2022-08-04T08:15:08;24.60;99.90
51615;DHT22;37695;52.960;6.188;2022-08-04T08:17:34;24.60;99.90
51615;DHT22;37695;52.960;6.188;2022-08-04T08:20:00;24.60;99.90
51615;DHT22;37695;52.960;6.188;2022-08-04T08:22:26;24.60;99.90
51615;DHT22;37695;52.960;6.188;2022-08-04T08:24:53;24.70;99.90
51615;DHT22;37695;52.960;6.188;2022-08-04T08:27:19;24.80;99.90
51615;DHT22;37695;52.960;6.188;2022-08-04T08:29:45;24.90;99.90
51615;DHT22;37695;52.960;6.188;2022-08-04T08:32:12;24.90;99.90
51615;DHT22;37695;52.960;6.188;2022-08-04T08:34:39;24.90;99.90
51615;DHT22;37695;52.960;6.188;2022-08-04T08:37:23;24.90;99.90
51615;DHT22;37695;52.960;6.188;2022-08-04T08:48:27;24.70;99.90
51615;DHT22;37695;52.960;6.188;2022-08-04T08:51:19;24.80;99.90
51615;DHT22;37695;52.960;6.188;2022-08-04T08:56:35;24.80;99.90
51615;DHT22;37695;52.960;6.188;2022-08-04T09:05:00;25.20;99.90
51615;DHT22;37695;52.960;6.188;2022-08-04T09:13:25;25.40;99.90
51615;DHT22;37695;52.960;6.188;2022-08-04T09:16:16;25.50;99.90
51615;DHT22;37695;52.960;6.188;2022-08-04T09:21:32;25.80;99.90
51615;DHT22;37695;52.960;6.188;2022-08-04T09:24:11;25.90;99.90
51615;DHT22;37695;52.960;6.188;2022-08-04T09:26:44;26.00;99.90
51615;DHT22;37695;52.960;6.188;2022-08-04T09:29:20;26.10;99.90
51615;DHT22;37695;52.960;6.188;2022-08-04T09:32:07;26.20;99.90
51615;DHT22;37695;52.960;6.188;2022-08-04T09:34:50;26.40;99.90
51615;DHT22;37695;52.960;6.188;2022-08-04T09:37:43;26.50;99.90
51615;DHT22;37695;52.960;6.188;2022-08-04T09:40:20;26.60;99.90
51615;DHT22;37695;52.960;6.188;2022-08-04T09:45:37;26.60;99.90
51615;DHT22;37695;52.960;6.188;2022-08-04T09:48:09;26.50;99.90
51615;DHT22;37695;52.960;6.188;2022-08-04T09:50:38;26.40;99.90
51615;DHT22;37695;52.960;6.188;2022-08-04T09:53:28;26.20;99.90
51615;DHT22;37695;52.960;6.188;2022-08-04T10:01:19;26.00;99.90
51615;DHT22;37695;52.960;6.188;2022-08-04T10:03:52;26.00;99.90
51615;DHT22;37695;52.960;6.188;2022-08-04T10:17:31;25.90;99.90
51615;DHT22;37695;52.960;6.188;2022-08-04T10:23:04;26.30;99.90
51615;DHT22;37695;52.960;6.188;2022-08-04T10:28:20;26.50;99.90
51615;DHT22;37695;52.960;6.188;2022-08-04T10:30:56;26.40;99.90
51615;DHT22;37695;52.960;6.188;2022-08-04T10:33:26;26.60;99.90
51615;DHT22;37695;52.960;6.188;2022-08-04T10:36:08;26.70;99.90
51615;DHT22;37695;52.960;6.188;2022-08-04T10:46:52;26.70;99.90
51615;DHT22;37695;52.960;6.188;2022-08-04T10:49:22;26.70;99.90
51615;DHT22;37695;52.960;6.188;2022-08-04T10:52:07;26.70;99.90
51615;DHT22;37695;52.960;6.188;2022-08-04T10:57:40;26.70;99.90
51615;DHT22;37695;52.960;6.188;2022-08-04T11:00:20;26.70;99.90
51615;DHT22;37695;52.960;6.188;2022-08-04T11:08:12;26.50;99.90
51615;DHT22;37695;52.960;6.188;2022-08-04T11:10:47;26.50;99.90
51615;DHT22;37695;52.960;6.188;2022-08-04T11:13:15;26.40;99.90
51615;DHT22;37695;52.960;6.188;2022-08-04T11:15:52;26.40;99.90
51615;DHT22;37695;52.960;6.188;2022-08-04T11:21:20;26.40;99.90
51615;DHT22;37695;52.960;6.188;2022-08-04T11:24:02;26.20;99.90
51615;DHT22;37695;52.960;6.188;2022-08-04T11:26:47;26.10;99.90
51615;DHT22;37695;52.960;6.188;2022-08-04T11:29:31;26.10;99.90
51615;DHT22;37695;52.960;6.188;2022-08-04T11:32:01;26.20;99.90
51615;DHT22;37695;52.960;6.188;2022-08-04T11:34:28;26.20;99.90
51615;DHT22;37695;52.960;6.188;2022-08-04T11:37:10;26.10;99.90
51615;DHT22;37695;52.960;6.188;2022-08-04T11:45:03;26.00;99.90
51615;DHT22;37695;52.960;6.188;2022-08-04T11:47:35;26.00;99.90
51615;DHT22;37695;52.960;6.188;2022-08-04T11:50:13;26.00;99.90
51615;DHT22;37695;52.960;6.188;2022-08-04T11:52:45;26.10;99.90
51615;DHT22;37695;52.960;6.188;2022-08-04T11:55:13;26.00;99.90
51615;DHT22;37695;52.960;6.188;2022-08-04T11:57:40;26.00;99.90
51615;DHT22;37695;52.960;6.188;2022-08-04T12:00:10;25.90;99.90
51615;DHT22;37695;52.960;6.188;2022-08-04T12:16:59;25.50;99.90
51615;DHT22;37695;52.960;6.188;2022-08-04T12:19:39;25.40;99.90
51615;DHT22;37695;52.960;6.188;2022-08-04T12:22:13;25.40;99.90
51615;DHT22;37695;52.960;6.188;2022-08-04T12:24:59;25.40;99.90
51615;DHT22;37695;52.960;6.188;2022-08-04T12:27:39;25.40;99.90
51615;DHT22;37695;52.960;6.188;2022-08-04T12:30:06;25.80;99.90
51615;DHT22;37695;52.960;6.188;2022-08-04T12:35:22;25.70;99.90
51615;DHT22;37695;52.960;6.188;2022-08-04T12:38:01;25.80;99.80
51615;DHT22;37695;52.960;6.188;2022-08-04T12:40:45;25.90;99.90
51615;DHT22;37695;52.960;6.188;2022-08-04T12:43:37;26.00;99.70
51615;DHT22;37695;52.960;6.188;2022-08-04T12:46:23;26.10;99.90
51615;DHT22;37695;52.960;6.188;2022-08-04T12:48:50;26.00;99.70
51615;DHT22;37695;52.960;6.188;2022-08-04T12:51:16;26.10;99.90
51615;DHT22;37695;52.960;6.188;2022-08-04T12:53:43;26.10;99.90
51615;DHT22;37695;52.960;6.188;2022-08-04T12:56:10;26.20;99.90
51615;DHT22;37695;52.960;6.188;2022-08-04T12:58:40;26.40;99.90
51615;DHT22;37695;52.960;6.188;2022-08-04T13:01:10;26.50;99.70
51615;DHT22;37695;52.960;6.188;2022-08-04T13:06:43;26.50;99.40
51615;DHT22;37695;52.960;6.188;2022-08-04T13:09:18;26.70;99.90
51615;DHT22;37695;52.960;6.188;2022-08-04T13:11:50;26.90;99.90
51615;DHT22;37695;52.960;6.188;2022-08-04T13:14:17;27.00;99.90
51615;DHT22;37695;52.960;6.188;2022-08-04T13:16:44;27.00;99.90
51615;DHT22;37695;52.960;6.188;2022-08-04T13:19:10;27.00;99.90
51615;DHT22;37695;52.960;6.188;2022-08-04T13:21:42;27.00;99.90
51615;DHT22;37695;52.960;6.188;2022-08-04T13:24:14;27.00;99.90
51615;DHT22;37695;52.960;6.188;2022-08-04T13:29:40;27.00;99.00
51615;DHT22;37695;52.960;6.188;2022-08-04T13:32:06;27.00;99.90
51615;DHT22;37695;52.960;6.188;2022-08-04T13:34:34;27.00;99.90
51615;DHT22;37695;52.960;6.188;2022-08-04T13:37:03;27.00;99.60
51615;DHT22;37695;52.960;6.188;2022-08-04T13:39:32;26.90;99.10
51615;DHT22;37695;52.960;6.188;2022-08-04T13:42:02;26.90;99.20
51615;DHT22;37695;52.960;6.188;2022-08-04T13:44:31;27.00;99.20
51615;DHT22;37695;52.960;6.188;2022-08-04T13:47:04;26.90;99.00
51615;DHT22;37695;52.960;6.188;2022-08-04T13:49:30;26.90;98.80
51615;DHT22;37695;52.960;6.188;2022-08-04T13:52:01;26.70;98.80
51615;DHT22;37695;52.960;6.188;2022-08-04T13:54:39;26.80;98.70
51615;DHT22;37695;52.960;6.188;2022-08-04T13:57:13;27.00;98.90
51615;DHT22;37695;52.960;6.188;2022-08-04T13:59:44;27.00;98.90
51615;DHT22;37695;52.960;6.188;2022-08-04T14:04:58;27.00;98.50
51615;DHT22;37695;52.960;6.188;2022-08-04T14:07:27;26.90;98.80
51615;DHT22;37695;52.960;6.188;2022-08-04T14:09:53;26.90;98.60
51615;DHT22;37695;52.960;6.188;2022-08-04T14:12:19;26.90;98.40
51615;DHT22;37695;52.960;6.188;2022-08-04T14:14:46;26.80;98.40
51615;DHT22;37695;52.960;6.188;2022-08-04T14:17:15;26.70;98.20
51615;DHT22;37695;52.960;6.188;2022-08-04T14:27:24;26.60;97.90
51615;DHT22;37695;52.960;6.188;2022-08-04T14:29:52;26.50;98.10
51615;DHT22;37695;52.960;6.188;2022-08-04T14:32:18;26.50;98.30
51615;DHT22;37695;52.960;6.188;2022-08-04T14:34:44;26.60;98.10
51615;DHT22;37695;52.960;6.188;2022-08-04T14:37:12;26.50;98.00
51615;DHT22;37695;52.960;6.188;2022-08-04T14:39:42;26.50;98.10
51615;DHT22;37695;52.960;6.188;2022-08-04T14:42:08;26.50;98.10
51615;DHT22;37695;52.960;6.188;2022-08-04T14:44:53;26.40;98.10
51615;DHT22;37695;52.960;6.188;2022-08-04T14:47:44;26.40;98.00
51615;DHT22;37695;52.960;6.188;2022-08-04T14:50:12;26.30;97.90
51615;DHT22;37695;52.960;6.188;2022-08-04T14:52:38;26.20;98.20
51615;DHT22;37695;52.960;6.188;2022-08-04T14:55:21;26.10;98.60
51615;DHT22;37695;52.960;6.188;2022-08-04T14:57:48;26.20;98.50
51615;DHT22;37695;52.960;6.188;2022-08-04T15:00:44;26.20;98.50
51615;DHT22;37695;52.960;6.188;2022-08-04T15:03:10;26.10;98.80
51615;DHT22;37695;52.960;6.188;2022-08-04T15:05:38;26.00;98.70
51615;DHT22;37695;52.960;6.188;2022-08-04T15:08:04;26.10;98.90
51615;DHT22;37695;52.960;6.188;2022-08-04T15:10:30;26.10;99.10
51615;DHT22;37695;52.960;6.188;2022-08-04T15:12:56;26.20;99.00
51615;DHT22;37695;52.960;6.188;2022-08-04T15:15:23;26.20;99.30
51615;DHT22;37695;52.960;6.188;2022-08-04T15:17:50;26.20;99.80
51615;DHT22;37695;52.960;6.188;2022-08-04T15:20:17;26.00;99.90
51615;DHT22;37695;52.960;6.188;2022-08-04T15:22:43;26.10;99.90
51615;DHT22;37695;52.960;6.188;2022-08-04T15:25:09;26.00;99.90
51615;DHT22;37695;52.960;6.188;2022-08-04T15:27:37;26.00;99.90
51615;DHT22;37695;52.960;6.188;2022-08-04T15:30:11;25.90;99.90
51615;DHT22;37695;52.960;6.188;2022-08-04T15:32:41;25.90;99.90
51615;DHT22;37695;52.960;6.188;2022-08-04T15:35:18;25.90;99.90
51615;DHT22;37695;52.960;6.188;2022-08-04T15:40:57;26.00;99.90
51615;DHT22;37695;52.960;6.188;2022-08-04T15:46:24;25.90;98.80
51615;DHT22;37695;52.960;6.188;2022-08-04T15:49:22;25.70;99.20
51615;DHT22;37695;52.960;6.188;2022-08-04T15:52:01;25.70;98.80
51615;DHT22;37695;52.960;6.188;2022-08-04T15:54:27;25.70;99.50
51615;DHT22;37695;52.960;6.188;2022-08-04T15:56:53;25.60;99.40
51615;DHT22;37695;52.960;6.188;2022-08-04T15:59:54;25.60;99.10
51615;DHT22;37695;52.960;6.188;2022-08-04T16:02:37;25.60;98.30
51615;DHT22;37695;52.960;6.188;2022-08-04T16:08:00;25.50;99.30
51615;DHT22;37695;52.960;6.188;2022-08-04T16:13:06;25.20;99.90
51615;DHT22;37695;52.960;6.188;2022-08-04T16:15:52;25.20;99.90
51615;DHT22;37695;52.960;6.188;2022-08-04T16:20:58;25.20;99.90
51615;DHT22;37695;52.960;6.188;2022-08-04T16:23:39;25.30;99.90
51615;DHT22;37695;52.960;6.188;2022-08-04T16:26:07;25.20;99.90
51615;DHT22;37695;52.960;6.188;2022-08-04T16:28:39;25.00;99.90
51615;DHT22;37695;52.960;6.188;2022-08-04T16:31:06;25.00;99.90
51615;DHT22;37695;52.960;6.188;2022-08-04T16:33:32;24.90;99.90
51615;DHT22;37695;52.960;6.188;2022-08-04T16:36:00;24.80;99.90
51615;DHT22;37695;52.960;6.188;2022-08-04T16:38:26;24.70;99.90
51615;DHT22;37695;52.960;6.188;2022-08-04T16:40:57;24.60;99.90
51615;DHT22;37695;52.960;6.188;2022-08-04T16:43:27;24.60;99.90
51615;DHT22;37695;52.960;6.188;2022-08-04T16:46:03;24.80;99.90
51615;DHT22;37695;52.960;6.188;2022-08-04T16:48:30;24.70;99.90
51615;DHT22;37695;52.960;6.188;2022-08-04T16:53:25;24.80;99.90
51615;DHT22;37695;52.960;6.188;2022-08-04T16:55:53;24.70;99.90
51615;DHT22;37695;52.960;6.188;2022-08-04T16:58:30;24.60;99.90
51615;DHT22;37695;52.960;6.188;2022-08-04T17:00:57;24.50;99.90
51615;DHT22;37695;52.960;6.188;2022-08-04T17:03:24;24.40;99.90
51615;DHT22;37695;52.960;6.188;2022-08-04T17:06:12;24.30;99.90
51615;DHT22;37695;52.960;6.188;2022-08-04T17:08:42;24.20;99.90
51615;DHT22;37695;52.960;6.188;2022-08-04T17:11:10;24.10;99.90
51615;DHT22;37695;52.960;6.188;2022-08-04T17:13:39;24.00;99.90
51615;DHT22;37695;52.960;6.188;2022-08-04T17:16:07;24.00;99.90
51615;DHT22;37695;52.960;6.188;2022-08-04T17:18:36;24.00;99.90
51615;DHT22;37695;52.960;6.188;2022-08-04T17:21:09;24.00;99.90
51615;DHT22;37695;52.960;6.188;2022-08-04T17:23:40;24.00;99.90
51615;DHT22;37695;52.960;6.188;2022-08-04T17:26:12;23.90;99.90
51615;DHT22;37695;52.960;6.188;2022-08-04T17:28:39;23.90;99.90
51615;DHT22;37695;52.960;6.188;2022-08-04T17:31:07;23.90;99.90
51615;DHT22;37695;52.960;6.188;2022-08-04T17:33:35;23.80;99.90
51615;DHT22;37695;52.960;6.188;2022-08-04T17:36:02;23.80;99.90
51615;DHT22;37695;52.960;6.188;2022-08-04T17:38:29;23.80;99.90
51615;DHT22;37695;52.960;6.188;2022-08-04T17:40:59;23.80;99.90
51615;DHT22;37695;52.960;6.188;2022-08-04T17:43:36;23.80;99.90
51615;DHT22;37695;52.960;6.188;2022-08-04T17:46:38;23.90;99.90
51615;DHT22;37695;52.960;6.188;2022-08-04T17:49:10;23.90;99.90
51615;DHT22;37695;52.960;6.188;2022-08-04T17:54:20;23.80;99.90
51615;DHT22;37695;52.960;6.188;2022-08-04T17:56:49;23.80;99.90
51615;DHT22;37695;52.960;6.188;2022-08-04T18:09:50;23.60;99.90
51615;DHT22;37695;52.960;6.188;2022-08-04T18:12:35;23.50;99.90
51615;DHT22;37695;52.960;6.188;2022-08-04T18:15:07;23.50;99.90
51615;DHT22;37695;52.960;6.188;2022-08-04T18:17:42;23.40;99.90
51615;DHT22;37695;52.960;6.188;2022-08-04T18:20:13;23.30;99.90
51615;DHT22;37695;52.960;6.188;2022-08-04T18:22:42;23.30;99.90
51615;DHT22;37695;52.960;6.188;2022-08-04T18:25:10;23.10;99.90
51615;DHT22;37695;52.960;6.188;2022-08-04T18:27:49;23.10;99.90
51615;DHT22;37695;52.960;6.188;2022-08-04T18:30:16;23.00;99.90
51615;DHT22;37695;52.960;6.188;2022-08-04T18:32:42;22.90;99.90
51615;DHT22;37695;52.960;6.188;2022-08-04T18:35:08;22.80;99.90
51615;DHT22;37695;52.960;6.188;2022-08-04T18:37:36;22.70;99.90
51615;DHT22;37695;52.960;6.188;2022-08-04T18:40:03;22.70;99.90
51615;DHT22;37695;52.960;6.188;2022-08-04T18:42:29;22.70;99.90
51615;DHT22;37695;52.960;6.188;2022-08-04T18:44:54;22.60;99.90
51615;DHT22;37695;52.960;6.188;2022-08-04T18:47:21;22.60;99.90
51615;DHT22;37695;52.960;6.188;2022-08-04T18:49:52;22.50;99.90
51615;DHT22;37695;52.960;6.188;2022-08-04T18:52:18;22.40;99.90
51615;DHT22;37695;52.960;6.188;2022-08-04T18:54:44;22.30;99.90
51615;DHT22;37695;52.960;6.188;2022-08-04T18:57:09;22.30;99.90
51615;DHT22;37695;52.960;6.188;2022-08-04T18:59:35;22.20;99.90
51615;DHT22;37695;52.960;6.188;2022-08-04T19:02:01;22.20;99.90
51615;DHT22;37695;52.960;6.188;2022-08-04T19:04:26;22.10;99.90
51615;DHT22;37695;52.960;6.188;2022-08-04T19:06:52;22.00;99.90
51615;DHT22;37695;52.960;6.188;2022-08-04T19:09:17;21.90;99.90
51615;DHT22;37695;52.960;6.188;2022-08-04T19:11:43;21.90;99.90
51615;DHT22;37695;52.960;6.188;2022-08-04T19:14:09;21.80;99.90
51615;DHT22;37695;52.960;6.188;2022-08-04T19:16:36;21.70;99.90
51615;DHT22;37695;52.960;6.188;2022-08-04T19:19:04;21.70;99.90
51615;DHT22;37695;52.960;6.188;2022-08-04T19:21:31;21.60;99.90
51615;DHT22;37695;52.960;6.188;2022-08-04T19:23:57;21.50;99.90
51615;DHT22;37695;52.960;6.188;2022-08-04T19:26:22;21.50;99.90
51615;DHT22;37695;52.960;6.188;2022-08-04T19:28:50;21.40;99.90
51615;DHT22;37695;52.960;6.188;2022-08-04T19:31:16;21.30;99.90
51615;DHT22;37695;52.960;6.188;2022-08-04T19:33:42;21.30;99.90
51615;DHT22;37695;52.960;6.188;2022-08-04T19:36:08;21.30;99.90
51615;DHT22;37695;52.960;6.188;2022-08-04T19:38:35;21.20;99.90
51615;DHT22;37695;52.960;6.188;2022-08-04T19:41:02;21.20;99.90
51615;DHT22;37695;52.960;6.188;2022-08-04T19:43:29;21.10;99.90
51615;DHT22;37695;52.960;6.188;2022-08-04T19:45:56;21.10;99.90
51615;DHT22;37695;52.960;6.188;2022-08-04T19:48:22;21.10;99.90
51615;DHT22;37695;52.960;6.188;2022-08-04T19:50:48;21.10;99.90
51615;DHT22;37695;52.960;6.188;2022-08-04T19:53:13;21.00;99.90
51615;DHT22;37695;52.960;6.188;2022-08-04T19:55:41;21.00;99.90
51615;DHT22;37695;52.960;6.188;2022-08-04T19:58:07;20.90;99.90
51615;DHT22;37695;52.960;6.188;2022-08-04T20:00:34;20.90;99.90
51615;DHT22;37695;52.960;6.188;2022-08-04T20:03:01;20.90;99.90
51615;DHT22;37695;52.960;6.188;2022-08-04T20:05:27;20.90;99.90
51615;DHT22;37695;52.960;6.188;2022-08-04T20:07:52;20.90;99.90
51615;DHT22;37695;52.960;6.188;2022-08-04T20:10:18;20.80;99.90
51615;DHT22;37695;52.960;6.188;2022-08-04T20:12:44;20.80;99.90
51615;DHT22;37695;52.960;6.188;2022-08-04T20:15:09;20.80;99.90
51615;DHT22;37695;52.960;6.188;2022-08-04T20:17:35;20.80;99.90
51615;DHT22;37695;52.960;6.188;2022-08-04T20:20:04;20.70;99.90
51615;DHT22;37695;52.960;6.188;2022-08-04T20:22:30;20.70;99.90
51615;DHT22;37695;52.960;6.188;2022-08-04T20:24:57;20.70;99.90